Time;durP1;ratioP1;P1;durP2;ratioP2;P2;SDS_P1;SDS_P2;PMS_P1;PMS_P2;Temp;Humidity;BMP_temperature;BMP_pressure;BME280_temperature;BME280_humidity;BME280_pressure;Samples;Min_cycle;Max_cycle;Signal;HPM_P1;HPM_P2
2021/01/27 00:02:20;;;;;;;23.33;16.33;;;;;;;0.95;100.00;100866.09;5092996;28;20570;-71
2021/01/27 00:04:46;;;;;;;24.73;16.97;;;;;;;1.02;100.00;100858.91;5059618;28;20201;-73
2021/01/27 00:07:11;;;;;;;23.00;15.00;;;;;;;0.85;100.00;100860.34;5093050;28;20730;-71
2021/01/27 00:09:37;;;;;;;24.40;15.87;;;;;;;0.81;100.00;100848.41;5076334;28;20260;-71
2021/01/27 00:12:06;;;;;;;21.43;15.80;;;;;;;0.79;100.00;100855.81;5042491;28;20746;-72
2021/01/27 00:14:33;;;;;;;20.20;15.43;;;;;;;0.81;100.00;100853.75;5059107;28;20181;-72
2021/01/27 00:17:01;;;;;;;19.50;14.43;;;;;;;1.05;100.00;100847.81;5092711;28;20389;-72
2021/01/27 00:19:27;;;;;;;23.20;15.57;;;;;;;1.00;100.00;100852.94;5060069;28;20226;-72
2021/01/27 00:21:54;;;;;;;20.97;15.53;;;;;;;1.12;100.00;100840.56;5059712;28;20229;-72
2021/01/27 00:24:20;;;;;;;22.17;15.73;;;;;;;1.08;100.00;100842.03;5059304;28;20170;-72
2021/01/27 00:26:48;;;;;;;21.20;15.60;;;;;;;1.10;100.00;100839.97;5075889;28;20237;-72
2021/01/27 00:29:15;;;;;;;21.20;15.77;;;;;;;1.02;100.00;100835.66;5076672;28;20224;-72
2021/01/27 00:31:46;;;;;;;21.90;15.93;;;;;;;1.17;100.00;100834.41;5059364;28;20855;-71
2021/01/27 00:34:20;;;;;;;21.53;15.40;;;;;;;1.13;100.00;100830.50;5076284;28;20323;-71
2021/01/27 00:36:50;;;;;;;22.60;16.10;;;;;;;1.05;100.00;100829.09;5059884;28;20245;-72
2021/01/27 00:39:18;;;;;;;22.73;16.00;;;;;;;1.16;100.00;100826.59;5075985;28;20210;-73
2021/01/27 00:41:44;;;;;;;21.63;16.53;;;;;;;1.34;100.00;100821.44;5075064;28;20214;-72
2021/01/27 00:44:12;;;;;;;22.33;15.83;;;;;;;1.11;100.00;100817.56;5042025;28;20182;-73
2021/01/27 00:46:38;;;;;;;26.23;17.17;;;;;;;1.31;100.00;100817.31;5075101;28;20222;-71
2021/01/27 00:49:04;;;;;;;22.80;16.80;;;;;;;1.41;100.00;100825.75;5075944;28;20202;-71
2021/01/27 00:51:29;;;;;;;23.80;16.23;;;;;;;1.38;100.00;100815.44;5092010;28;20214;-71
2021/01/27 00:53:55;;;;;;;22.87;15.87;;;;;;;1.31;100.00;100817.31;5059037;28;20201;-71
2021/01/27 00:56:26;;;;;;;26.77;17.87;;;;;;;1.45;100.00;100808.22;5074548;28;20244;-72
2021/01/27 00:58:55;;;;;;;24.70;17.10;;;;;;;1.53;100.00;100803.44;5076079;28;20302;-72
2021/01/27 01:01:33;;;;;;;25.30;18.03;;;;;;;1.63;100.00;100808.34;5061853;28;20222;-71
2021/01/27 01:04:01;;;;;;;24.23;18.00;;;;;;;1.70;100.00;100809.97;5075513;28;20186;-72
2021/01/27 01:06:27;;;;;;;27.23;17.43;;;;;;;1.58;100.00;100797.47;5075014;28;20230;-71
2021/01/27 01:08:52;;;;;;;26.40;17.80;;;;;;;1.77;100.00;100804.59;5059016;28;20286;-72
2021/01/27 01:11:20;;;;;;;29.83;19.43;;;;;;;1.68;100.00;100808.56;5075164;28;20294;-72
2021/01/27 01:13:49;;;;;;;25.90;17.03;;;;;;;1.69;100.00;100802.19;5075742;28;20178;-71
2021/01/27 01:16:14;;;;;;;24.10;17.17;;;;;;;1.80;100.00;100809.56;5057948;28;20352;-72
2021/01/27 01:18:40;;;;;;;23.57;17.07;;;;;;;1.74;100.00;100811.22;5075368;28;20218;-72
2021/01/27 01:21:05;;;;;;;24.33;17.40;;;;;;;1.71;100.00;100805.47;5074333;28;20222;-72
2021/01/27 01:23:31;;;;;;;23.60;17.97;;;;;;;1.76;100.00;100802.94;5092325;28;20178;-72
2021/01/27 01:25:58;;;;;;;23.60;17.23;;;;;;;1.86;100.00;100814.06;5058228;28;20218;-72
2021/01/27 01:28:24;;;;;;;23.93;17.50;;;;;;;1.84;100.00;100810.75;5092204;28;20194;-72
2021/01/27 01:30:55;;;;;;;30.47;18.27;;;;;;;1.77;100.00;100816.13;5075201;28;20214;-71
2021/01/27 01:33:22;;;;;;;30.60;19.97;;;;;;;1.92;100.00;100797.94;5092115;28;20646;-71
2021/01/27 01:35:51;;;;;;;34.73;21.43;;;;;;;1.75;100.00;100804.81;5073702;28;20270;-72
2021/01/27 01:38:16;;;;;;;79.97;41.67;;;;;;;1.66;100.00;100799.91;5074608;28;20186;-71
2021/01/27 01:40:58;;;;;;;79.57;41.90;;;;;;;1.72;100.00;100796.38;5057398;28;20268;-71
2021/01/27 01:43:34;;;;;;;56.73;31.30;;;;;;;1.62;100.00;100796.03;5060342;28;20592;-72
2021/01/27 01:45:59;;;;;;;54.17;30.17;;;;;;;1.67;100.00;100793.53;5040805;28;20691;-72
2021/01/27 01:48:34;;;;;;;43.80;25.33;;;;;;;1.52;100.00;100788.44;5091189;28;20209;-71
2021/01/27 01:51:24;;;;;;;50.50;30.33;;;;;;;1.51;100.00;100791.31;5090644;28;20640;-72
2021/01/27 01:53:51;;;;;;;30.93;21.03;;;;;;;1.45;100.00;100792.19;5091556;28;20188;-71
2021/01/27 01:56:21;;;;;;;23.73;18.20;;;;;;;1.31;100.00;100779.84;5057093;28;20319;-72
2021/01/27 01:58:47;;;;;;;26.67;18.17;;;;;;;1.36;100.00;100790.75;5074739;28;20210;-72
2021/01/27 02:01:13;;;;;;;26.77;18.33;;;;;;;1.31;100.00;100787.88;5057225;28;20636;-72
2021/01/27 02:03:39;;;;;;;27.67;19.80;;;;;;;1.43;100.00;100786.22;5074775;28;20193;-72
2021/01/27 02:06:08;;;;;;;27.17;17.80;;;;;;;1.28;100.00;100782.13;5056708;28;20772;-72
2021/01/27 02:08:34;;;;;;;23.27;16.87;;;;;;;1.44;100.00;100787.03;5074611;28;20221;-71
2021/01/27 02:11:00;;;;;;;24.27;17.63;;;;;;;1.47;100.00;100782.09;5073728;28;20221;-72
2021/01/27 02:13:59;;;;;;;25.57;18.03;;;;;;;1.40;100.00;100786.63;5073761;28;20645;-72
2021/01/27 02:16:51;;;;;;;22.80;16.50;;;;;;;1.36;100.00;100774.72;5090298;28;20218;-72
2021/01/27 02:19:49;;;;;;;25.60;17.97;;;;;;;1.35;100.00;100772.25;5057917;28;20708;-71
2021/01/27 02:22:15;;;;;;;26.83;16.40;;;;;;;1.52;100.00;100774.25;5077637;28;20237;-71
2021/01/27 02:25:08;;;;;;;26.33;17.77;;;;;;;1.38;100.00;100767.28;5073866;28;20186;-71
2021/01/27 02:27:38;;;;;;;25.07;17.07;;;;;;;1.46;100.00;100764.38;5092267;28;20221;-72
2021/01/27 02:30:22;;;;;;;24.93;17.70;;;;;;;1.68;100.00;100758.50;5057438;28;20187;-72
2021/01/27 02:33:14;;;;;;;24.83;17.20;;;;;;;1.80;100.00;100756.00;5091825;28;20225;-72
2021/01/27 02:35:51;;;;;;;33.17;18.90;;;;;;;1.86;100.00;100760.50;5057282;28;20213;-72
2021/01/27 02:38:26;;;;;;;27.53;17.70;;;;;;;1.80;100.00;100756.81;5057965;28;20177;-72
2021/01/27 02:41:13;;;;;;;32.27;19.00;;;;;;;1.84;100.00;100757.22;5058027;28;20221;-72
2021/01/27 02:43:43;;;;;;;29.53;18.60;;;;;;;1.89;100.00;100757.38;5077526;28;20563;-73
2021/01/27 02:46:30;;;;;;;32.47;19.07;;;;;;;1.81;100.00;100747.75;5040041;28;20229;-73
2021/01/27 02:49:27;;;;;;;29.07;19.13;;;;;;;1.80;100.00;100747.97;5090782;28;20234;-72
2021/01/27 02:51:59;;;;;;;30.40;18.47;;;;;;;1.86;100.00;100739.09;5070112;28;20224;-72
2021/01/27 02:54:36;;;;;;;30.57;19.93;;;;;;;1.89;100.00;100744.84;5090784;28;20198;-72
2021/01/27 02:57:16;;;;;;;27.70;18.73;;;;;;;1.92;100.00;100742.56;5056401;28;20222;-72
2021/01/27 03:00:01;;;;;;;29.13;19.33;;;;;;;1.84;100.00;100749.19;5075326;28;20221;-72
2021/01/27 03:02:45;;;;;;;28.17;19.33;;;;;;;1.80;100.00;100746.13;5092193;28;20300;-72
2021/01/27 03:05:32;;;;;;;29.13;19.40;;;;;;;1.92;100.00;100744.38;5089509;28;20652;-72
2021/01/27 03:08:17;;;;;;;30.30;19.83;;;;;;;1.76;100.00;100738.72;5075994;28;20656;-71
2021/01/27 03:10:57;;;;;;;30.67;20.10;;;;;;;1.98;100.00;100736.34;5059492;28;20214;-72
2021/01/27 03:13:27;;;;;;;32.37;19.80;;;;;;;2.08;100.00;100731.31;5090646;28;20181;-71
2021/01/27 03:15:56;;;;;;;30.77;20.40;;;;;;;2.11;100.00;100733.56;5090160;28;20214;-71
2021/01/27 03:18:27;;;;;;;29.07;20.00;;;;;;;2.09;100.00;100741.00;5040117;28;20193;-72
2021/01/27 03:20:54;;;;;;;31.97;20.33;;;;;;;2.00;100.00;100738.81;5072830;28;20233;-72
2021/01/27 03:23:19;;;;;;;31.60;20.17;;;;;;;1.96;100.00;100730.38;5056666;28;20182;-72
2021/01/27 03:26:09;;;;;;;27.97;20.27;;;;;;;2.02;100.00;100729.50;5068689;28;20223;-71
2021/01/27 03:28:50;;;;;;;29.47;20.33;;;;;;;2.13;100.00;100726.13;5069656;28;20233;-72
2021/01/27 03:31:15;;;;;;;30.90;20.13;;;;;;;2.24;100.00;100722.75;5054404;28;20242;-72
2021/01/27 03:33:44;;;;;;;33.43;20.57;;;;;;;2.02;100.00;100723.34;5036565;28;20660;-72
2021/01/27 03:36:10;;;;;;;32.73;21.87;;;;;;;2.22;100.00;100719.50;5035761;28;20699;-72
2021/01/27 03:38:49;;;;;;;31.67;21.13;;;;;;;2.21;100.00;100723.19;5037372;28;20269;-72
2021/01/27 03:41:22;;;;;;;32.40;21.77;;;;;;;2.11;100.00;100712.16;5035786;28;20245;-72
2021/01/27 03:44:02;;;;;;;29.83;21.37;;;;;;;2.17;100.00;100713.13;5055149;28;20198;-71
2021/01/27 03:46:31;;;;;;;35.20;22.73;;;;;;;2.30;100.00;100717.34;5069296;28;20319;-72
2021/01/27 03:48:58;;;;;;;33.03;23.53;;;;;;;2.21;100.00;100712.47;5073320;28;20723;-73
2021/01/27 03:51:24;;;;;;;34.63;23.70;;;;;;;2.31;100.00;100712.81;5039036;28;20231;-71
2021/01/27 03:53:51;;;;;;;32.93;23.40;;;;;;;2.28;100.00;100707.91;5055959;28;20175;-72
2021/01/27 03:56:19;;;;;;;36.73;22.73;;;;;;;2.38;100.00;100709.06;5055194;28;20214;-72
2021/01/27 03:58:45;;;;;;;35.77;23.57;;;;;;;2.40;100.00;100706.13;5053360;28;20254;-72
2021/01/27 04:01:18;;;;;;;39.07;23.57;;;;;;;2.21;100.00;100704.44;5068931;28;20222;-72
2021/01/27 04:03:44;;;;;;;34.27;22.63;;;;;;;2.41;100.00;100694.41;5052936;28;20175;-72
2021/01/27 04:06:10;;;;;;;34.00;24.17;;;;;;;2.27;100.00;100698.19;5035374;28;20724;-72
2021/01/27 04:08:35;;;;;;;34.63;24.50;;;;;;;2.39;100.00;100685.75;5053070;28;20183;-72
2021/01/27 04:11:01;;;;;;;36.07;25.00;;;;;;;2.34;100.00;100693.63;5035909;28;20223;-72
2021/01/27 04:13:30;;;;;;;37.27;25.80;;;;;;;2.27;100.00;100692.03;5054540;28;20187;-72
2021/01/27 04:15:56;;;;;;;37.00;25.70;;;;;;;2.37;100.00;100696.69;5058965;28;20362;-71
2021/01/27 04:18:24;;;;;;;39.90;25.57;;;;;;;2.49;100.00;100688.75;5092963;28;20261;-72
2021/01/27 04:20:52;;;;;;;37.77;25.83;;;;;;;2.32;100.00;100698.38;5092208;28;20222;-72
2021/01/27 04:23:20;;;;;;;39.53;26.70;;;;;;;2.46;100.00;100689.19;5094494;28;20251;-72
2021/01/27 04:25:47;;;;;;;37.13;26.30;;;;;;;2.47;100.00;100693.50;5058767;28;20695;-72
2021/01/27 04:28:13;;;;;;;40.00;26.23;;;;;;;2.39;100.00;100691.13;5059714;28;20563;-72
2021/01/27 04:30:38;;;;;;;37.50;27.83;;;;;;;2.39;100.00;100683.06;5074950;28;20293;-72
2021/01/27 04:33:06;;;;;;;43.43;27.67;;;;;;;2.52;100.00;100682.97;5075810;28;20632;-73
2021/01/27 04:35:32;;;;;;;41.53;28.87;;;;;;;2.50;100.00;100685.03;5055385;28;20614;-71
2021/01/27 04:37:58;;;;;;;41.20;28.17;;;;;;;2.42;100.00;100677.28;5039422;28;20187;-71
2021/01/27 04:40:26;;;;;;;39.17;27.97;;;;;;;2.44;100.00;100678.69;5038728;28;20214;-71
2021/01/27 04:42:52;;;;;;;42.90;29.43;;;;;;;2.52;100.00;100685.63;5081252;28;20209;-71
2021/01/27 04:45:17;;;;;;;41.90;28.63;;;;;;;2.46;100.00;100689.19;5074646;28;20660;-71
2021/01/27 04:47:58;;;;;;;41.70;28.97;;;;;;;2.49;100.00;100678.88;5075657;28;20675;-72
2021/01/27 04:50:32;;;;;;;38.80;27.97;;;;;;;2.50;100.00;100677.00;5091314;28;20240;-72
2021/01/27 04:53:15;;;;;;;39.47;28.60;;;;;;;2.67;100.00;100675.41;5059315;28;20194;-73
2021/01/27 04:56:18;;;;;;;41.47;27.53;;;;;;;2.63;100.00;100666.16;5071308;28;20738;-72
2021/01/27 04:59:03;;;;;;;37.97;26.90;;;;;;;2.59;100.00;100668.44;5088894;28;20213;-72
2021/01/27 05:01:34;;;;;;;41.97;28.03;;;;;;;2.58;100.00;100657.94;5057133;28;20287;-72
2021/01/27 05:04:18;;;;;;;41.93;27.93;;;;;;;2.71;100.00;100662.16;5095585;28;20179;-73
2021/01/27 05:06:45;;;;;;;39.77;28.77;;;;;;;2.55;100.00;100661.09;5077333;28;20233;-73
2021/01/27 05:09:12;;;;;;;39.77;28.30;;;;;;;2.72;100.00;100657.59;5057236;28;20278;-72
2021/01/27 05:11:42;;;;;;;38.50;28.23;;;;;;;2.67;100.00;100653.94;5072088;28;20313;-72
2021/01/27 05:14:07;;;;;;;44.70;29.63;;;;;;;2.64;100.00;100657.91;5038421;28;20183;-72
2021/01/27 05:16:35;;;;;;;42.83;30.20;;;;;;;2.53;100.00;100661.31;5053958;28;20600;-73
2021/01/27 05:19:06;;;;;;;44.53;30.30;;;;;;;2.57;100.00;100659.00;5039796;28;20692;-72
2021/01/27 05:21:45;;;;;;;45.63;31.10;;;;;;;2.67;100.00;100663.63;5071169;28;20333;-72
2021/01/27 05:24:11;;;;;;;39.07;28.23;;;;;;;2.59;100.00;100659.59;5038097;28;20236;-72
2021/01/27 05:26:45;;;;;;;39.27;28.93;;;;;;;2.51;100.00;100665.22;5037836;28;20223;-72
2021/01/27 05:29:35;;;;;;;44.87;29.50;;;;;;;2.66;100.00;100657.69;5054800;28;20230;-72
2021/01/27 05:32:08;;;;;;;41.90;28.37;;;;;;;2.53;100.00;100647.09;5040160;28;20309;-72
2021/01/27 05:37:28;;;;;;;45.00;31.53;;;;;;;2.51;100.00;100643.78;5088288;27;20569;-74
2021/01/27 05:40:30;;;;;;;61.97;42.70;;;;;;;2.35;100.00;100645.19;5088966;28;20638;-74
2021/01/27 05:42:58;;;;;;;42.13;28.90;;;;;;;2.54;100.00;100643.34;5066302;28;20367;-71
2021/01/27 05:45:36;;;;;;;46.43;29.47;;;;;;;2.50;100.00;100642.16;5054462;28;20655;-72
2021/01/27 05:48:32;;;;;;;42.37;29.13;;;;;;;2.46;100.00;100649.00;5088603;28;20189;-72
2021/01/27 05:51:01;;;;;;;37.13;27.80;;;;;;;2.57;100.00;100640.25;5075150;28;20672;-73
2021/01/27 05:53:31;;;;;;;41.67;29.07;;;;;;;2.38;100.00;100643.91;5082471;28;20216;-72
2021/01/27 05:56:01;;;;;;;38.30;27.80;;;;;;;2.51;100.00;100646.47;5108119;28;20232;-72
2021/01/27 05:58:30;;;;;;;53.70;35.73;;;;;;;2.54;100.00;100640.69;5057091;28;20301;-71
2021/01/27 06:01:32;;;;;;;66.40;42.23;;;;;;;2.53;100.00;100641.72;5050344;28;20301;-70
2021/01/27 06:03:58;;;;;;;36.90;27.77;;;;;;;2.49;100.00;100640.50;5056462;28;20200;-71
2021/01/27 06:06:28;;;;;;;37.13;27.27;;;;;;;2.49;100.00;100640.50;5086223;28;20230;-71
2021/01/27 06:08:56;;;;;;;40.07;28.97;;;;;;;2.35;100.00;100626.44;5054902;28;20202;-71
2021/01/27 06:11:21;;;;;;;38.80;27.07;;;;;;;2.42;100.00;100635.22;5036515;28;20214;-70
2021/01/27 06:13:48;;;;;;;38.53;28.67;;;;;;;2.37;100.00;100620.84;5087166;28;20203;-70
2021/01/27 06:16:18;;;;;;;40.03;29.77;;;;;;;2.30;100.00;100623.56;5052543;28;20226;-71
2021/01/27 06:18:46;;;;;;;39.70;28.30;;;;;;;2.30;100.00;100625.44;5068417;28;20290;-72
2021/01/27 06:21:39;;;;;;;40.23;26.83;;;;;;;2.25;100.00;100617.25;5061524;28;20328;-71
2021/01/27 06:24:45;;;;;;;42.00;27.03;;;;;;;2.21;100.00;100617.91;5085870;28;20731;-73
2021/01/27 06:27:29;;;;;;;38.43;25.90;;;;;;;2.14;100.00;100604.56;5071236;28;20221;-73
2021/01/27 06:30:23;;;;;;;40.47;27.47;;;;;;;2.35;100.00;100612.22;5067510;28;20304;-71
2021/01/27 06:33:25;;;;;;;35.87;25.97;;;;;;;2.08;100.00;100607.31;5052921;28;20242;-71
2021/01/27 06:35:57;;;;;;;39.27;25.83;;;;;;;2.25;100.00;100603.84;5056152;28;20223;-72
2021/01/27 06:38:41;;;;;;;41.40;27.70;;;;;;;2.18;100.00;100600.44;5068129;28;20580;-72
2021/01/27 06:41:38;;;;;;;36.37;26.43;;;;;;;2.20;100.00;100598.34;5067198;28;20222;-72
2021/01/27 06:44:22;;;;;;;37.00;26.97;;;;;;;2.14;100.00;100599.19;5087366;28;20190;-72
2021/01/27 06:47:03;;;;;;;37.77;25.00;;;;;;;2.05;100.00;100589.84;5065577;28;20214;-72
2021/01/27 06:49:52;;;;;;;40.60;25.57;;;;;;;2.19;100.00;100588.66;5073306;28;20219;-72
2021/01/27 06:52:31;;;;;;;36.77;26.17;;;;;;;2.04;100.00;100588.19;5073365;28;20223;-71
2021/01/27 06:55:10;;;;;;;34.30;25.27;;;;;;;2.15;100.00;100578.63;5054859;28;20186;-71
2021/01/27 06:58:10;;;;;;;36.47;24.70;;;;;;;2.02;100.00;100582.22;5040879;28;20760;-72
2021/01/27 07:00:41;;;;;;;32.13;24.03;;;;;;;2.16;100.00;100580.25;5073202;28;20218;-71
2021/01/27 07:03:26;;;;;;;36.90;24.67;;;;;;;2.05;100.00;100579.13;5072539;28;20571;-71
2021/01/27 07:06:09;;;;;;;37.00;24.53;;;;;;;2.13;100.00;100575.34;5065068;28;20264;-72
2021/01/27 07:09:12;;;;;;;37.73;26.20;;;;;;;2.19;100.00;100577.94;5094231;28;20194;-71
2021/01/27 07:12:02;;;;;;;49.17;30.70;;;;;;;2.09;100.00;100583.00;5092216;28;20220;-71
2021/01/27 07:14:45;;;;;;;101.63;55.90;;;;;;;2.03;100.00;100581.22;5091954;28;20184;-71
2021/01/27 07:17:14;;;;;;;70.93;43.10;;;;;;;2.07;100.00;100593.13;5092003;28;20670;-72
2021/01/27 07:19:51;;;;;;;49.60;34.17;;;;;;;1.95;100.00;100581.47;5092481;28;20209;-72
2021/01/27 07:22:38;;;;;;;35.63;25.97;;;;;;;1.86;100.00;100584.63;5058905;28;20222;-71
2021/01/27 07:25:21;;;;;;;29.83;22.87;;;;;;;1.82;100.00;100587.97;5091540;28;20273;-72
2021/01/27 07:28:17;;;;;;;32.93;24.10;;;;;;;1.81;100.00;100580.97;5059776;28;20175;-71
2021/01/27 07:31:03;;;;;;;31.23;23.17;;;;;;;1.77;100.00;100585.13;5077538;28;20293;-71
2021/01/27 07:33:49;;;;;;;32.53;22.63;;;;;;;1.77;100.00;100585.13;5059162;28;20178;-71
2021/01/27 07:36:44;;;;;;;30.67;22.00;;;;;;;1.75;100.00;100579.16;5025526;28;20246;-71
2021/01/27 07:39:15;;;;;;;29.43;21.70;;;;;;;1.79;100.00;100577.69;5035537;28;20204;-72
2021/01/27 07:42:03;;;;;;;32.20;22.50;;;;;;;1.89;100.00;100578.00;5018565;28;20235;-72
2021/01/27 07:44:29;;;;;;;32.50;22.60;;;;;;;1.81;100.00;100578.28;5021207;28;20179;-71
2021/01/27 07:46:56;;;;;;;31.53;22.20;;;;;;;1.83;100.00;100576.22;5051044;28;20242;-71
2021/01/27 07:49:28;;;;;;;30.53;21.93;;;;;;;1.80;100.00;100574.81;5051450;28;20300;-71
2021/01/27 07:51:56;;;;;;;28.97;21.67;;;;;;;1.76;100.00;100578.13;5051106;28;20234;-71
2021/01/27 07:54:25;;;;;;;29.97;22.23;;;;;;;1.89;100.00;100573.50;5034833;28;20653;-71
2021/01/27 07:56:56;;;;;;;31.47;21.73;;;;;;;1.78;100.00;100573.41;5050753;28;20235;-71
2021/01/27 07:59:33;;;;;;;27.50;20.47;;;;;;;1.84;100.00;100576.00;5034343;28;20340;-71
2021/01/27 08:02:33;;;;;;;32.77;21.20;;;;;;;1.88;100.00;100582.56;5017984;28;20288;-71
2021/01/27 08:05:04;;;;;;;30.67;20.60;;;;;;;1.83;100.00;100573.53;5037361;28;20207;-71
2021/01/27 08:07:36;;;;;;;32.13;21.63;;;;;;;1.92;100.00;100568.53;5034767;28;20217;-72
2021/01/27 08:10:09;;;;;;;30.90;22.10;;;;;;;1.92;100.00;100568.53;5018583;28;20246;-71
2021/01/27 08:12:41;;;;;;;28.97;20.17;;;;;;;1.90;100.00;100571.63;5034274;28;20211;-71
2021/01/27 08:15:13;;;;;;;29.20;20.83;;;;;;;1.98;100.00;100572.19;5017969;28;20203;-71
2021/01/27 08:17:44;;;;;;;28.53;20.17;;;;;;;1.92;100.00;100573.03;5051261;28;20699;-71
2021/01/27 08:20:24;;;;;;;28.90;20.20;;;;;;;1.93;100.00;100570.16;5050099;28;20214;-71
2021/01/27 08:22:54;;;;;;;25.70;18.90;;;;;;;1.78;100.00;100560.00;5036041;28;20179;-71
2021/01/27 08:25:48;;;;;;;27.60;19.67;;;;;;;1.87;100.00;100564.03;5017835;28;20179;-72
2021/01/27 08:28:32;;;;;;;27.73;19.60;;;;;;;1.87;100.00;100562.19;5051042;28;20198;-70
2021/01/27 08:31:07;;;;;;;26.20;18.70;;;;;;;1.78;100.00;100568.03;5034322;28;20284;-71
2021/01/27 08:33:44;;;;;;;30.57;19.10;;;;;;;1.76;100.00;100560.22;5050896;28;20184;-71
2021/01/27 08:36:14;;;;;;;28.80;19.80;;;;;;;1.81;100.00;100551.53;5033251;28;20224;-72
2021/01/27 08:38:41;;;;;;;28.43;19.37;;;;;;;1.63;100.00;100560.31;5048127;28;20264;-72
2021/01/27 08:41:12;;;;;;;31.13;19.57;;;;;;;1.61;100.00;100550.84;5033608;28;20219;-72
2021/01/27 08:43:42;;;;;;;27.13;18.87;;;;;;;1.77;100.00;100547.66;5035462;28;20207;-71
2021/01/27 08:46:29;;;;;;;27.10;18.40;;;;;;;1.68;100.00;100539.06;5033384;28;20296;-71
2021/01/27 08:48:55;;;;;;;26.33;18.33;;;;;;;1.86;100.00;100524.94;5066835;28;20199;-71
2021/01/27 08:51:41;;;;;;;24.27;17.17;;;;;;;2.14;100.00;100524.22;5050799;28;20835;-71
2021/01/27 08:54:39;;;;;;;26.03;17.70;;;;;;;2.05;100.00;100530.06;5034249;28;20329;-73
2021/01/27 08:57:25;;;;;;;22.23;16.10;;;;;;;2.22;100.00;100523.13;5035502;28;20243;-71
2021/01/27 08:59:54;;;;;;;22.47;15.40;;;;;;;2.25;100.00;100518.13;5051307;28;20215;-71
2021/01/27 09:02:39;;;;;;;21.53;15.77;;;;;;;2.38;100.00;100509.94;5051212;28;20700;-70
2021/01/27 09:05:19;;;;;;;20.07;14.40;;;;;;;2.52;100.00;100501.53;5049584;28;20192;-71
2021/01/27 09:08:06;;;;;;;21.20;14.70;;;;;;;2.40;100.00;100513.22;5051767;28;20207;-71
2021/01/27 09:10:31;;;;;;;21.10;14.90;;;;;;;2.55;100.00;100508.31;5050499;28;20599;-71
2021/01/27 09:12:58;;;;;;;21.40;15.03;;;;;;;2.82;100.00;100508.59;5050245;28;20188;-71
2021/01/27 09:15:31;;;;;;;16.87;12.57;;;;;;;2.81;100.00;100498.09;5055015;28;20283;-71
2021/01/27 09:18:03;;;;;;;16.03;11.27;;;;;;;2.73;100.00;100499.22;5037915;28;20183;-71
2021/01/27 09:20:30;;;;;;;14.67;11.00;;;;;;;2.85;100.00;100492.03;5036899;28;20222;-71
2021/01/27 09:23:00;;;;;;;15.27;10.73;;;;;;;2.82;100.00;100492.50;5020580;28;20175;-71
2021/01/27 09:25:26;;;;;;;13.23;10.13;;;;;;;2.87;100.00;100489.94;5052314;28;20352;-70
2021/01/27 09:28:06;;;;;;;13.97;9.80;;;;;;;2.93;100.00;100490.88;5021525;28;20193;-71
2021/01/27 09:30:35;;;;;;;12.37;9.20;;;;;;;3.00;100.00;100500.47;5036451;28;20714;-71
2021/01/27 09:33:13;;;;;;;11.80;8.80;;;;;;;3.05;100.00;100497.13;5020940;28;20190;-71
2021/01/27 09:35:40;;;;;;;13.40;9.47;;;;;;;3.04;100.00;100501.69;5051949;28;20222;-71
2021/01/27 09:38:20;;;;;;;11.77;9.13;;;;;;;3.34;100.00;100499.78;5036806;28;20191;-71
2021/01/27 09:41:00;;;;;;;14.10;9.00;;;;;;;3.36;100.00;100495.00;5053974;28;20219;-71
2021/01/27 09:43:25;;;;;;;11.20;8.93;;;;;;;3.28;100.00;100506.06;5020121;28;20224;-71
2021/01/27 09:45:51;;;;;;;11.97;8.73;;;;;;;3.45;100.00;100500.63;5052176;28;20226;-71
2021/01/27 09:48:19;;;;;;;14.80;10.00;;;;;;;3.65;99.44;100500.31;5036554;28;20183;-71
2021/01/27 09:50:51;;;;;;;10.63;8.93;;;;;;;3.55;99.70;100500.91;5019850;28;20218;-72
2021/01/27 09:53:30;;;;;;;11.90;8.60;;;;;;;3.81;97.84;100505.84;5036602;28;20189;-71
2021/01/27 09:55:56;;;;;;;11.80;8.93;;;;;;;3.75;98.73;100506.72;5053253;28;20214;-71
2021/01/27 09:58:24;;;;;;;16.33;10.77;;;;;;;3.85;98.15;100502.44;5053162;28;20556;-72
2021/01/27 10:00:50;;;;;;;32.03;18.53;;;;;;;4.15;96.44;100499.63;5036466;28;20222;-71
2021/01/27 10:03:36;;;;;;;27.40;15.27;;;;;;;4.10;94.24;100499.50;5037381;28;20179;-72
2021/01/27 10:06:04;;;;;;;54.30;26.97;;;;;;;4.03;92.08;100498.81;5035886;28;20226;-70
2021/01/27 10:08:34;;;;;;;21.80;12.00;;;;;;;4.09;91.74;100493.31;5053092;28;20618;-71
2021/01/27 10:11:24;;;;;;;13.27;8.50;;;;;;;4.16;92.74;100501.25;5052211;28;20322;-71
2021/01/27 10:13:56;;;;;;;44.67;19.20;;;;;;;4.26;90.60;100505.00;5053313;28;20198;-71
2021/01/27 10:16:21;;;;;;;41.00;17.97;;;;;;;4.28;91.15;100498.31;5036526;28;20231;-71
2021/01/27 10:18:49;;;;;;;94.57;34.47;;;;;;;4.39;88.39;100484.03;5053161;28;20206;-72
2021/01/27 10:21:15;;;;;;;11.47;7.17;;;;;;;4.41;89.31;100476.56;5036232;28;20368;-71
2021/01/27 10:23:42;;;;;;;15.27;8.07;;;;;;;4.59;89.63;100473.72;5056977;28;20316;-71
2021/01/27 10:26:29;;;;;;;14.87;7.53;;;;;;;4.50;86.96;100480.50;5056953;28;20226;-71
2021/01/27 10:29:13;;;;;;;15.70;9.53;;;;;;;4.60;87.64;100472.69;5083075;28;20209;-71
2021/01/27 10:31:39;;;;;;;10.40;7.40;;;;;;;4.62;89.38;100475.94;5090898;28;20312;-71
2021/01/27 10:34:04;;;;;;;10.43;6.87;;;;;;;4.70;85.82;100470.97;5092004;28;20296;-70
2021/01/27 10:36:33;;;;;;;13.77;8.80;;;;;;;4.64;86.18;100471.13;5078570;28;20239;-71
2021/01/27 10:39:22;;;;;;;13.40;8.47;;;;;;;4.76;86.42;100469.22;5057470;28;20614;-70
2021/01/27 10:42:06;;;;;;;11.30;7.10;;;;;;;4.93;85.30;100465.53;5073273;28;20218;-70
2021/01/27 10:44:36;;;;;;;10.27;5.97;;;;;;;5.03;86.08;100463.03;5073441;28;20263;-71
2021/01/27 10:47:08;;;;;;;8.63;6.23;;;;;;;5.14;85.01;100460.25;5038213;28;20758;-71
2021/01/27 10:49:39;;;;;;;9.27;6.50;;;;;;;5.32;85.16;100460.06;5053678;28;20219;-72
2021/01/27 10:52:07;;;;;;;6.73;5.30;;;;;;;5.28;83.33;100460.81;5020535;28;20250;-70
2021/01/27 10:54:33;;;;;;;7.03;5.10;;;;;;;5.14;84.41;100468.34;5021191;28;20172;-71
2021/01/27 10:57:01;;;;;;;7.37;5.50;;;;;;;5.30;85.18;100456.78;5036657;28;20234;-71
2021/01/27 10:59:31;;;;;;;7.17;5.53;;;;;;;5.28;83.45;100458.09;5037609;28;20664;-71
2021/01/27 11:01:57;;;;;;;6.57;5.60;;;;;;;5.04;83.58;100441.25;5052017;28;20679;-71
2021/01/27 11:04:23;;;;;;;7.23;5.63;;;;;;;5.01;85.84;100441.72;5053239;28;20172;-71
2021/01/27 11:06:48;;;;;;;7.00;5.27;;;;;;;4.99;84.19;100438.47;5025429;28;20263;-71
2021/01/27 11:09:16;;;;;;;6.80;5.37;;;;;;;5.03;86.17;100447.69;5059191;28;20559;-71
2021/01/27 11:11:42;;;;;;;6.10;4.70;;;;;;;4.97;84.59;100442.47;5079788;28;20755;-71
2021/01/27 11:14:11;;;;;;;4.83;4.33;;;;;;;4.82;85.66;100439.50;5039570;28;20175;-72
2021/01/27 11:16:43;;;;;;;5.97;4.60;;;;;;;5.00;85.24;100440.09;5072971;28;20704;-71
2021/01/27 11:19:11;;;;;;;4.40;3.43;;;;;;;4.80;84.29;100443.47;5039899;28;20237;-70
2021/01/27 11:21:37;;;;;;;4.90;4.17;;;;;;;4.83;85.05;100443.00;5071710;28;20683;-71
2021/01/27 11:24:04;;;;;;;6.50;4.57;;;;;;;4.89;85.89;100431.25;5055367;28;20179;-72
2021/01/27 11:26:30;;;;;;;5.83;5.20;;;;;;;4.74;85.35;100434.50;5072580;28;20225;-71
2021/01/27 11:28:58;;;;;;;5.57;4.33;;;;;;;4.61;85.88;100439.34;5038573;28;20618;-71
2021/01/27 11:31:27;;;;;;;5.53;4.10;;;;;;;4.69;87.11;100433.59;5038797;28;20238;-71
2021/01/27 11:33:53;;;;;;;5.13;4.57;;;;;;;4.57;85.93;100433.63;5038924;28;20179;-71
2021/01/27 11:36:19;;;;;;;5.47;4.80;;;;;;;4.77;86.56;100438.59;5070369;28;20793;-71
2021/01/27 11:38:50;;;;;;;4.80;3.60;;;;;;;4.73;86.43;100432.88;5055638;28;20251;-72
2021/01/27 11:41:16;;;;;;;5.07;3.90;;;;;;;4.61;86.48;100440.19;5055195;28;20218;-71
2021/01/27 11:43:43;;;;;;;4.87;4.33;;;;;;;4.72;85.58;100441.16;5022305;28;20182;-71
2021/01/27 11:46:09;;;;;;;4.53;4.13;;;;;;;4.61;86.35;100433.94;5070667;28;20218;-71